Time;durP1;ratioP1;P1;durP2;ratioP2;P2;SDS_P1;SDS_P2;PMS_P1;PMS_P2;Temp;Humidity;BMP_temperature;BMP_pressure;BME280_temperature;BME280_humidity;BME280_pressure;Samples;Min_cycle;Max_cycle;Signal;HPM_P1;HPM_P2
2021/12/23 00:00:55;;;;;;;1.70;1.60;;;19.90;49.00;;;;;;4994017;28;20037;-66
2021/12/23 00:03:20;;;;;;;1.92;1.80;;;19.90;49.00;;;;;;4992510;28;20393;-66
2021/12/23 00:05:46;;;;;;;2.00;1.90;;;19.90;49.00;;;;;;4992454;28;20022;-66
2021/12/23 00:08:11;;;;;;;1.83;1.73;;;19.90;48.90;;;;;;4992179;28;20054;-66
2021/12/23 00:10:37;;;;;;;1.90;1.80;;;19.90;48.90;;;;;;4992503;28;20087;-66
2021/12/23 00:13:03;;;;;;;2.00;1.90;;;19.90;48.90;;;;;;4993587;28;20026;-66
2021/12/23 00:15:36;;;;;;;1.95;1.85;;;19.90;48.90;;;;;;4976426;28;20088;-66
2021/12/23 00:18:17;;;;;;;1.67;1.58;;;19.90;49.00;;;;;;4993622;28;20026;-66
2021/12/23 00:25:46;;;;;;;1.80;1.70;;;19.90;48.90;;;;;;4993489;28;20027;-66
2021/12/23 00:28:12;;;;;;;1.88;1.77;;;19.90;49.00;;;;;;4993422;28;20069;-66
2021/12/23 00:30:37;;;;;;;1.80;1.70;;;19.90;48.90;;;;;;4976209;28;20030;-66
2021/12/23 00:33:03;;;;;;;2.00;1.90;;;19.90;48.90;;;;;;4993204;28;20026;-66
2021/12/23 00:35:29;;;;;;;1.85;1.70;;;19.90;48.90;;;;;;4992117;28;20034;-66
2021/12/23 00:38:00;;;;;;;1.95;1.85;;;19.90;48.90;;;;;;4992986;28;20516;-66
2021/12/23 00:40:26;;;;;;;1.88;1.77;;;19.90;49.00;;;;;;4993197;28;20034;-66
2021/12/23 00:42:52;;;;;;;2.00;1.90;;;19.90;48.90;;;;;;4992049;28;20022;-66
2021/12/23 00:45:18;;;;;;;1.80;1.70;;;19.90;48.90;;;;;;5004858;28;20435;-66
2021/12/23 00:47:43;;;;;;;1.77;1.67;;;19.90;48.90;;;;;;5011329;28;20026;-66
2021/12/23 00:50:09;;;;;;;1.70;1.60;;;19.90;49.90;;;;;;5011695;28;20022;-66
2021/12/23 00:52:37;;;;;;;1.85;1.75;;;19.90;48.90;;;;;;5011014;28;20471;-66
2021/12/23 00:55:07;;;;;;;1.75;1.65;;;19.90;48.90;;;;;;5012721;28;20081;-66
2021/12/23 00:57:37;;;;;;;1.60;1.50;;;19.90;48.90;;;;;;5011348;28;20030;-66
2021/12/23 01:00:04;;;;;;;1.70;1.60;;;19.90;48.90;;;;;;5011449;28;20103;-66
2021/12/23 01:02:31;;;;;;;1.85;1.75;;;19.90;48.80;;;;;;5011107;28;20022;-66
2021/12/23 01:04:57;;;;;;;1.60;1.50;;;19.90;48.90;;;;;;5014784;28;20111;-66
2021/12/23 01:07:23;;;;;;;1.83;1.73;;;19.90;48.90;;;;;;5016235;28;20042;-66
2021/12/23 01:09:48;;;;;;;1.60;1.50;;;19.90;48.80;;;;;;5016580;28;20037;-66
2021/12/23 01:12:18;;;;;;;1.60;1.50;;;19.90;48.80;;;;;;5016621;28;20033;-66
2021/12/23 01:19:50;;;;;;;1.30;1.30;;;19.90;48.90;;;;;;5016538;28;20037;-66
2021/12/23 01:22:15;;;;;;;1.55;1.45;;;19.90;48.80;;;;;;5015939;28;20033;-66
2021/12/23 01:24:41;;;;;;;1.60;1.50;;;19.90;48.80;;;;;;5016292;28;20028;-66
2021/12/23 01:27:07;;;;;;;1.60;1.50;;;19.90;48.80;;;;;;4998863;28;20021;-66
2021/12/23 01:29:32;;;;;;;1.60;1.50;;;19.90;48.80;;;;;;5014933;28;20030;-66
2021/12/23 01:32:00;;;;;;;1.27;1.17;;;19.90;48.80;;;;;;5015114;28;20432;-66
2021/12/23 01:34:26;;;;;;;1.10;1.10;;;20.00;48.90;;;;;;5014961;28;20022;-66
2021/12/23 01:36:52;;;;;;;1.30;1.20;;;20.00;48.90;;;;;;5015571;28;20026;-66
2021/12/23 01:39:17;;;;;;;1.15;1.15;;;19.90;48.80;;;;;;5016031;28;20030;-66
2021/12/23 01:41:43;;;;;;;1.23;1.17;;;19.90;48.80;;;;;;5015813;28;20072;-66
2021/12/23 01:44:08;;;;;;;1.73;1.63;;;20.00;48.90;;;;;;5010930;28;20010;-66
2021/12/23 01:46:34;;;;;;;1.50;1.40;;;20.00;48.90;;;;;;4994986;28;20066;-66
2021/12/23 01:49:00;;;;;;;1.17;1.17;;;20.00;48.90;;;;;;4995101;28;20022;-66
2021/12/23 01:51:25;;;;;;;1.10;1.10;;;20.00;48.90;;;;;;4994681;28;20034;-66
2021/12/23 01:53:51;;;;;;;1.30;1.20;;;20.00;48.90;;;;;;4996038;28;20018;-66
2021/12/23 01:56:17;;;;;;;1.38;1.30;;;19.90;48.80;;;;;;4996275;28;20084;-66
2021/12/23 01:58:43;;;;;;;1.27;1.27;;;20.00;48.80;;;;;;4988610;28;20014;-66
2021/12/23 02:01:09;;;;;;;1.15;1.15;;;20.00;48.80;;;;;;5014518;28;20037;-66
2021/12/23 02:03:35;;;;;;;1.35;1.25;;;20.00;48.90;;;;;;5014410;28;20076;-66
2021/12/23 02:06:00;;;;;;;1.15;1.15;;;20.00;48.90;;;;;;4997836;28;20026;-66
2021/12/23 02:08:26;;;;;;;1.50;1.40;;;20.00;48.90;;;;;;5014167;28;20048;-66
2021/12/23 02:10:53;;;;;;;1.17;1.17;;;20.00;48.90;;;;;;5015646;28;20040;-66
2021/12/23 02:13:20;;;;;;;1.08;1.08;;;20.00;48.90;;;;;;5014242;28;20033;-66
2021/12/23 02:15:46;;;;;;;1.40;1.30;;;20.00;48.90;;;;;;5014026;28;20618;-66
2021/12/23 02:18:11;;;;;;;1.38;1.27;;;20.00;48.80;;;;;;5014124;28;20138;-66
2021/12/23 02:20:37;;;;;;;1.23;1.20;;;20.00;48.90;;;;;;5014951;28;20026;-66
2021/12/23 02:23:03;;;;;;;1.17;1.17;;;20.00;48.90;;;;;;4997769;28;20065;-66
2021/12/23 02:25:28;;;;;;;1.45;1.38;;;20.00;48.90;;;;;;4997735;28;20113;-66
2021/12/23 02:27:55;;;;;;;1.50;1.40;;;20.00;48.80;;;;;;5013891;28;20022;-66
2021/12/23 02:30:26;;;;;;;1.10;1.10;;;20.00;48.80;;;;;;5013968;28;20072;-66
2021/12/23 02:32:51;;;;;;;1.23;1.20;;;20.00;48.90;;;;;;4997776;28;20049;-66
2021/12/23 02:35:18;;;;;;;1.30;1.20;;;20.00;48.80;;;;;;5014796;28;20491;-66
2021/12/23 02:37:44;;;;;;;1.00;1.00;;;20.00;48.90;;;;;;5014888;28;20022;-66
2021/12/23 02:40:11;;;;;;;1.10;1.10;;;20.00;48.80;;;;;;4997519;28;20026;-66
2021/12/23 02:42:37;;;;;;;1.10;1.10;;;20.00;48.90;;;;;;5013538;28;20022;-66
2021/12/23 02:45:04;;;;;;;1.15;1.15;;;20.00;48.90;;;;;;5013496;28;20101;-66
2021/12/23 02:47:30;;;;;;;1.30;1.23;;;20.00;48.90;;;;;;5013415;28;20026;-66
2021/12/23 02:49:56;;;;;;;1.00;1.00;;;20.00;48.90;;;;;;5013454;28;20033;-66
2021/12/23 02:52:22;;;;;;;1.10;1.10;;;20.00;48.80;;;;;;5014849;28;20030;-66
2021/12/23 02:54:57;;;;;;;1.30;1.30;;;20.00;48.80;;;;;;5013373;28;20034;-66
2021/12/23 02:57:24;;;;;;;1.08;1.08;;;20.00;48.80;;;;;;5013530;28;20412;-66
2021/12/23 02:59:50;;;;;;;1.20;1.20;;;20.00;48.90;;;;;;4994242;28;20018;-66
2021/12/23 03:02:15;;;;;;;1.10;1.10;;;20.00;48.90;;;;;;4993476;28;20524;-66
2021/12/23 03:04:41;;;;;;;1.10;1.10;;;20.00;48.90;;;;;;4994721;28;20064;-66
2021/12/23 03:07:06;;;;;;;1.38;1.35;;;20.00;48.90;;;;;;4993984;28;20181;-66
2021/12/23 03:09:32;;;;;;;1.10;1.10;;;20.00;48.80;;;;;;4993605;28;20046;-66
2021/12/23 03:11:58;;;;;;;1.10;1.10;;;20.00;48.80;;;;;;4993528;28;20034;-66
2021/12/23 03:14:23;;;;;;;0.90;0.90;;;20.00;48.90;;;;;;4993339;28;20404;-66
2021/12/23 03:16:49;;;;;;;0.90;0.90;;;20.00;48.80;;;;;;4993366;28;20037;-66
2021/12/23 03:19:16;;;;;;;1.10;1.10;;;20.00;48.80;;;;;;4977386;28;20057;-66
2021/12/23 03:21:44;;;;;;;1.08;1.08;;;20.00;48.90;;;;;;4994359;28;20401;-66
2021/12/23 03:24:11;;;;;;;1.02;1.00;;;20.00;48.90;;;;;;4993388;28;20540;-66
2021/12/23 03:26:36;;;;;;;1.23;1.10;;;20.00;48.80;;;;;;4994128;28;20036;-66
2021/12/23 03:29:03;;;;;;;1.08;1.08;;;20.00;48.80;;;;;;4993125;28;20026;-66
2021/12/23 03:31:28;;;;;;;1.05;1.05;;;20.00;48.80;;;;;;4994321;28;20022;-66
2021/12/23 03:33:54;;;;;;;0.85;0.85;;;20.00;48.80;;;;;;4994233;28;20061;-66
2021/12/23 03:36:19;;;;;;;1.00;1.00;;;20.00;48.90;;;;;;4994219;28;20485;-66
2021/12/23 03:38:45;;;;;;;0.88;0.88;;;20.00;48.80;;;;;;4993054;28;20500;-66
2021/12/23 03:41:11;;;;;;;1.00;1.00;;;20.00;48.80;;;;;;4993118;28;20026;-66
2021/12/23 03:43:36;;;;;;;1.00;1.00;;;20.00;48.80;;;;;;4992859;28;20030;-66
2021/12/23 03:46:02;;;;;;;1.00;1.00;;;20.00;48.80;;;;;;5012572;28;20222;-66
2021/12/23 03:48:28;;;;;;;1.10;1.10;;;20.00;48.80;;;;;;4996123;28;20026;-66
2021/12/23 03:50:53;;;;;;;0.90;0.90;;;20.00;48.80;;;;;;4996301;28;20366;-66
2021/12/23 03:53:19;;;;;;;0.98;0.98;;;20.00;48.80;;;;;;5013507;28;20064;-66
2021/12/23 03:55:45;;;;;;;1.10;1.10;;;20.00;48.80;;;;;;5012410;28;20022;-66
2021/12/23 03:58:11;;;;;;;1.15;1.15;;;20.00;48.80;;;;;;4995991;28;20028;-66
2021/12/23 04:00:36;;;;;;;1.10;1.10;;;20.00;48.80;;;;;;4995670;28;20037;-66
2021/12/23 04:03:02;;;;;;;1.00;1.00;;;20.00;48.80;;;;;;5012184;28;20536;-66
2021/12/23 04:05:27;;;;;;;1.13;1.13;;;20.00;48.80;;;;;;5013425;28;20026;-66
2021/12/23 04:07:53;;;;;;;1.02;0.98;;;20.00;48.80;;;;;;5013132;28;20125;-66
2021/12/23 04:10:21;;;;;;;1.00;1.00;;;20.00;48.80;;;;;;5013261;28;20101;-66
2021/12/23 04:12:47;;;;;;;1.20;1.20;;;20.00;48.80;;;;;;4996075;28;20456;-66
2021/12/23 04:15:13;;;;;;;1.00;1.00;;;20.00;48.80;;;;;;4995441;28;20057;-66
2021/12/23 04:17:38;;;;;;;1.00;1.00;;;20.00;48.80;;;;;;5011978;28;20113;-66
2021/12/23 04:20:20;;;;;;;0.93;0.93;;;20.00;48.80;;;;;;5011945;28;20026;-66
2021/12/23 04:22:47;;;;;;;1.00;1.00;;;20.00;48.80;;;;;;5012157;28;20026;-66
2021/12/23 04:25:13;;;;;;;1.00;1.00;;;20.00;48.80;;;;;;5011971;28;20076;-66
2021/12/23 04:27:39;;;;;;;1.20;1.20;;;20.00;48.90;;;;;;5011844;28;20395;-66
2021/12/23 04:30:05;;;;;;;1.00;1.00;;;20.00;48.80;;;;;;5012552;28;20097;-66
2021/12/23 04:32:31;;;;;;;1.08;1.08;;;19.90;48.70;;;;;;4995862;28;20044;-66
2021/12/23 04:34:57;;;;;;;0.90;0.90;;;19.90;48.80;;;;;;5012855;28;20105;-66
2021/12/23 04:37:22;;;;;;;1.00;1.00;;;20.00;48.80;;;;;;5011755;28;20034;-66
2021/12/23 04:39:48;;;;;;;0.90;0.90;;;20.00;48.80;;;;;;5011976;28;20022;-66
2021/12/23 04:42:14;;;;;;;1.00;1.00;;;20.00;48.80;;;;;;5012839;28;20038;-66
2021/12/23 04:44:39;;;;;;;1.10;1.10;;;20.00;48.80;;;;;;5004487;28;20021;-66
2021/12/23 04:47:05;;;;;;;0.90;0.90;;;19.90;48.80;;;;;;4993184;28;20030;-66
2021/12/23 04:49:30;;;;;;;1.00;1.00;;;19.90;48.70;;;;;;4992079;28;20508;-66
2021/12/23 04:51:56;;;;;;;1.00;1.00;;;20.00;48.80;;;;;;4991803;28;20384;-66
2021/12/23 04:54:22;;;;;;;1.10;1.10;;;20.00;48.80;;;;;;4975910;28;20388;-66
2021/12/23 04:56:47;;;;;;;1.10;1.10;;;20.00;48.80;;;;;;4991957;28;20038;-66
2021/12/23 04:59:13;;;;;;;1.00;1.00;;;19.90;48.70;;;;;;5006618;28;20029;-66
2021/12/23 05:01:38;;;;;;;0.75;0.75;;;19.90;48.70;;;;;;5012595;28;20037;-66
2021/12/23 05:04:04;;;;;;;1.00;1.00;;;19.90;48.70;;;;;;5012537;28;20026;-66
2021/12/23 05:06:30;;;;;;;0.95;0.95;;;20.00;48.80;;;;;;5012660;28;20033;-66
2021/12/23 05:08:56;;;;;;;1.00;1.00;;;20.00;48.80;;;;;;5012523;28;20411;-66
2021/12/23 05:11:21;;;;;;;0.90;0.90;;;19.90;48.70;;;;;;5012434;28;20137;-66
2021/12/23 05:13:47;;;;;;;1.00;1.00;;;19.90;48.70;;;;;;5012277;28;20157;-66
2021/12/23 05:16:18;;;;;;;0.98;0.98;;;19.90;48.70;;;;;;5012597;28;20057;-66
2021/12/23 05:18:44;;;;;;;1.17;1.08;;;20.00;48.80;;;;;;4995776;28;20436;-66
2021/12/23 05:21:10;;;;;;;1.02;1.02;;;19.90;48.70;;;;;;5012321;28;20028;-66
2021/12/23 05:23:35;;;;;;;0.90;0.90;;;19.90;48.70;;;;;;5012280;28;20026;-66
2021/12/23 05:26:05;;;;;;;0.90;0.90;;;19.90;48.80;;;;;;5011218;28;20037;-66
2021/12/23 05:28:31;;;;;;;1.08;1.08;;;19.90;48.70;;;;;;5012172;28;20274;-66
2021/12/23 05:30:56;;;;;;;1.08;1.08;;;20.00;48.80;;;;;;5011172;28;20076;-66
2021/12/23 05:33:22;;;;;;;1.10;1.10;;;19.90;48.70;;;;;;4995091;28;20026;-66
2021/12/23 05:35:48;;;;;;;0.98;0.98;;;19.90;48.70;;;;;;5011126;28;20029;-66
2021/12/23 05:38:13;;;;;;;0.95;0.95;;;19.90;48.70;;;;;;5012281;28;20080;-66
2021/12/23 05:40:39;;;;;;;1.00;1.00;;;19.90;48.70;;;;;;5011149;28;20149;-66
2021/12/23 05:43:05;;;;;;;0.98;0.98;;;19.90;48.70;;;;;;5011715;28;20480;-66
2021/12/23 05:45:31;;;;;;;0.90;0.90;;;19.90;49.80;;;;;;4994798;28;20113;-66
2021/12/23 05:47:56;;;;;;;1.00;1.00;;;19.90;48.80;;;;;;5011071;28;20101;-66
2021/12/23 05:50:24;;;;;;;0.95;0.95;;;19.90;48.70;;;;;;5012051;28;20506;-66
2021/12/23 05:52:49;;;;;;;1.10;1.10;;;19.90;48.80;;;;;;5014762;28;20029;-66
2021/12/23 05:55:15;;;;;;;1.00;1.00;;;19.90;48.80;;;;;;4998191;28;20040;-66
2021/12/23 05:57:41;;;;;;;0.90;0.90;;;19.90;48.80;;;;;;5012689;28;20024;-66
2021/12/23 06:00:19;;;;;;;0.90;0.90;;;19.90;48.80;;;;;;4995017;28;20552;-66
2021/12/23 06:02:44;;;;;;;0.98;0.98;;;19.90;49.70;;;;;;4996117;28;20046;-66
2021/12/23 06:05:10;;;;;;;1.17;1.17;;;19.90;48.70;;;;;;4995930;28;20069;-66
2021/12/23 06:07:36;;;;;;;1.05;1.05;;;19.90;48.70;;;;;;4995891;28;20031;-66
2021/12/23 06:10:03;;;;;;;0.95;0.95;;;19.90;48.70;;;;;;4994866;28;20393;-66
2021/12/23 06:12:28;;;;;;;1.00;1.00;;;19.90;48.70;;;;;;4994610;28;20050;-66
2021/12/23 06:14:54;;;;;;;1.13;1.10;;;19.90;48.70;;;;;;4995716;28;20126;-66
2021/12/23 06:17:20;;;;;;;1.00;1.00;;;19.90;48.80;;;;;;4995775;28;20026;-66
2021/12/23 06:19:45;;;;;;;0.90;0.90;;;19.90;48.70;;;;;;4995742;28;20045;-66
2021/12/23 06:22:13;;;;;;;1.00;1.00;;;19.90;48.70;;;;;;4995599;28;20030;-66
2021/12/23 06:24:39;;;;;;;1.00;1.00;;;19.90;48.80;;;;;;4995656;28;20022;-66
2021/12/23 06:27:05;;;;;;;1.00;1.00;;;19.90;48.70;;;;;;4995103;28;20088;-66
2021/12/23 06:29:31;;;;;;;1.10;1.10;;;19.90;49.70;;;;;;4995570;28;20425;-66
2021/12/23 06:31:56;;;;;;;0.88;0.88;;;19.90;48.70;;;;;;4994085;28;20061;-66
2021/12/23 06:34:22;;;;;;;0.80;0.80;;;19.90;48.70;;;;;;4995615;28;20035;-66
2021/12/23 06:36:47;;;;;;;1.15;1.05;;;19.90;48.80;;;;;;4995431;28;20030;-66
2021/12/23 06:39:13;;;;;;;0.90;0.90;;;19.90;48.80;;;;;;4978013;28;20121;-66
2021/12/23 06:41:39;;;;;;;0.80;0.80;;;19.90;48.70;;;;;;4993841;28;20031;-66
2021/12/23 06:44:05;;;;;;;1.00;1.00;;;19.90;48.70;;;;;;4997102;28;20437;-66
2021/12/23 06:46:30;;;;;;;0.80;0.80;;;19.90;48.70;;;;;;5014865;28;20053;-66
2021/12/23 06:48:56;;;;;;;0.93;0.93;;;19.90;48.80;;;;;;5014815;28;20092;-66
2021/12/23 06:51:22;;;;;;;0.90;0.90;;;19.90;48.70;;;;;;5013365;28;20030;-66
2021/12/23 06:53:47;;;;;;;0.98;0.98;;;19.90;48.70;;;;;;5014669;28;20065;-66
2021/12/23 06:56:17;;;;;;;0.90;0.90;;;19.90;48.70;;;;;;5014493;28;20109;-66
2021/12/23 06:58:47;;;;;;;1.10;1.10;;;19.90;48.70;;;;;;5014741;28;20021;-66
2021/12/23 07:01:17;;;;;;;0.80;0.80;;;19.90;48.70;;;;;;5014109;28;20065;-66
2021/12/23 07:04:07;;;;;;;0.90;0.90;;;19.90;49.80;;;;;;5013959;28;20034;-66
2021/12/23 07:06:31;;;;;;;0.90;0.90;;;19.90;48.70;;;;;;5013805;28;20565;-66
2021/12/23 07:08:56;;;;;;;0.90;0.90;;;19.90;48.80;;;;;;5012872;28;20500;-66
2021/12/23 07:11:22;;;;;;;1.00;1.00;;;19.90;48.70;;;;;;5014431;28;20025;-66
2021/12/23 07:13:48;;;;;;;0.80;0.80;;;19.90;48.70;;;;;;5013152;28;20034;-66
2021/12/23 07:16:14;;;;;;;0.90;0.90;;;19.90;48.70;;;;;;5014349;28;20522;-66
2021/12/23 07:18:40;;;;;;;0.88;0.88;;;19.90;48.70;;;;;;5013158;28;20037;-66
2021/12/23 07:21:05;;;;;;;1.10;1.10;;;19.90;48.70;;;;;;5014161;28;20395;-66
2021/12/23 07:23:31;;;;;;;0.88;0.88;;;19.90;48.70;;;;;;5013869;28;20030;-66
2021/12/23 07:25:56;;;;;;;1.00;1.00;;;19.90;48.70;;;;;;5012941;28;20427;-66
2021/12/23 07:28:22;;;;;;;0.88;0.88;;;19.90;48.70;;;;;;5012742;28;20026;-66
2021/12/23 07:30:47;;;;;;;0.90;0.90;;;19.90;48.70;;;;;;5012969;28;20033;-66
2021/12/23 07:33:13;;;;;;;0.80;0.80;;;19.90;48.70;;;;;;5014013;28;20030;-66
2021/12/23 07:35:40;;;;;;;0.80;0.80;;;19.90;48.70;;;;;;5013020;28;20022;-66
2021/12/23 07:38:06;;;;;;;0.80;0.80;;;19.90;48.80;;;;;;5012376;28;20105;-66
2021/12/23 07:40:31;;;;;;;1.00;1.00;;;19.90;48.80;;;;;;5012793;28;20049;-66
2021/12/23 07:43:08;;;;;;;0.80;0.80;;;19.90;48.80;;;;;;5013748;28;20032;-66
2021/12/23 07:45:34;;;;;;;0.82;0.82;;;19.90;48.70;;;;;;5013757;28;20026;-66
2021/12/23 07:47:59;;;;;;;0.90;0.90;;;19.90;48.80;;;;;;5012617;28;20053;-66
2021/12/23 07:50:25;;;;;;;0.82;0.82;;;19.90;48.70;;;;;;5013520;28;20026;-66
2021/12/23 07:52:51;;;;;;;0.90;0.90;;;19.90;48.70;;;;;;5012193;28;20104;-66
2021/12/23 07:55:17;;;;;;;0.90;0.90;;;19.90;48.70;;;;;;4996196;28;20022;-66
2021/12/23 07:57:43;;;;;;;0.80;0.80;;;19.90;48.70;;;;;;5010426;28;20088;-66
2021/12/23 08:00:09;;;;;;;0.90;0.90;;;19.90;48.70;;;;;;4976662;28;20037;-66
2021/12/23 08:02:35;;;;;;;0.77;0.77;;;19.90;48.70;;;;;;4992466;28;20508;-66
2021/12/23 08:05:01;;;;;;;0.80;0.80;;;19.90;48.70;;;;;;4993852;28;20069;-66
2021/12/23 08:07:26;;;;;;;0.90;0.90;;;19.90;48.70;;;;;;4993251;28;20030;-66
2021/12/23 08:09:52;;;;;;;0.90;0.90;;;19.90;48.70;;;;;;4992517;28;20385;-66
2021/12/23 08:12:18;;;;;;;0.70;0.70;;;19.90;48.70;;;;;;4992522;28;20065;-66
2021/12/23 08:14:43;;;;;;;0.80;0.80;;;19.90;48.70;;;;;;4993791;28;20030;-66
2021/12/23 08:17:09;;;;;;;0.70;0.70;;;19.90;48.80;;;;;;4992247;28;20485;-66
2021/12/23 08:19:34;;;;;;;0.82;0.82;;;19.90;48.70;;;;;;4993735;28;20023;-66
2021/12/23 08:22:00;;;;;;;0.93;0.93;;;19.90;48.70;;;;;;4992987;28;20027;-66
2021/12/23 08:24:26;;;;;;;0.90;0.90;;;19.90;48.70;;;;;;4993561;28;20489;-66
2021/12/23 08:26:53;;;;;;;0.80;0.80;;;19.90;48.70;;;;;;4992281;28;20025;-66
2021/12/23 08:29:19;;;;;;;0.80;0.80;;;19.90;48.70;;;;;;4992293;28;20045;-66
2021/12/23 08:31:53;;;;;;;0.80;0.80;;;19.90;48.70;;;;;;4993386;28;20034;-66
2021/12/23 08:34:23;;;;;;;0.90;0.90;;;19.90;48.70;;;;;;4992334;28;20026;-66
2021/12/23 08:36:49;;;;;;;0.63;0.63;;;19.90;48.70;;;;;;4993112;28;20030;-66
2021/12/23 08:39:15;;;;;;;0.73;0.73;;;19.90;48.80;;;;;;4992000;28;20022;-66
2021/12/23 08:41:41;;;;;;;0.80;0.80;;;19.90;48.70;;;;;;4991996;28;20033;-66
2021/12/23 08:44:07;;;;;;;0.82;0.82;;;19.90;48.70;;;;;;4995355;28;20022;-66
2021/12/23 08:46:32;;;;;;;0.77;0.77;;;19.90;48.80;;;;;;5011549;28;20400;-66
2021/12/23 08:48:58;;;;;;;0.80;0.80;;;19.90;48.80;;;;;;5011575;28;20463;-66
2021/12/23 08:51:24;;;;;;;0.80;0.80;;;19.90;48.70;;;;;;5012389;28;20507;-66
2021/12/23 08:53:49;;;;;;;0.90;0.90;;;19.90;48.70;;;;;;5011526;28;20026;-66
2021/12/23 08:56:15;;;;;;;0.80;0.80;;;19.90;48.80;;;;;;5011415;28;20100;-66
2021/12/23 08:58:42;;;;;;;0.80;0.80;;;20.00;48.90;;;;;;5012575;28;20562;-66
2021/12/23 09:01:07;;;;;;;0.80;0.80;;;19.90;48.80;;;;;;5011533;28;20060;-66
2021/12/23 09:03:33;;;;;;;0.77;0.77;;;20.00;48.80;;;;;;5011412;28;20050;-66
2021/12/23 09:05:59;;;;;;;0.85;0.85;;;19.90;48.80;;;;;;5011007;28;20540;-66
2021/12/23 09:08:26;;;;;;;0.75;0.75;;;19.90;48.70;;;;;;4995047;28;20108;-66
2021/12/23 09:10:53;;;;;;;0.80;0.80;;;19.90;48.80;;;;;;5011457;28;20033;-66
2021/12/23 09:13:19;;;;;;;0.90;0.90;;;19.90;48.80;;;;;;4995232;28;20032;-66
2021/12/23 09:15:44;;;;;;;0.60;0.60;;;19.90;48.80;;;;;;5011282;28;20034;-66
2021/12/23 09:18:11;;;;;;;0.77;0.77;;;19.90;48.80;;;;;;5011359;28;20109;-66
2021/12/23 09:20:36;;;;;;;0.70;0.70;;;19.90;48.80;;;;;;5012134;28;20037;-66
2021/12/23 09:23:02;;;;;;;0.77;0.77;;;20.00;48.80;;;;;;5012335;28;20029;-66
2021/12/23 09:25:32;;;;;;;0.80;0.80;;;20.00;48.80;;;;;;4996245;28;20026;-66
2021/12/23 09:28:09;;;;;;;0.70;0.70;;;19.90;48.80;;;;;;5016292;28;20489;-66
2021/12/23 09:33:19;;;;;;;0.88;0.80;;;20.00;48.90;;;;;;5016351;28;20052;-66
2021/12/23 09:35:44;;;;;;;0.60;0.60;;;19.90;48.90;;;;;;5015699;28;20033;-66
2021/12/23 09:38:10;;;;;;;0.70;0.70;;;20.00;48.90;;;;;;4998507;28;20084;-66
2021/12/23 09:40:36;;;;;;;0.75;0.75;;;20.00;48.90;;;;;;5016016;28;20038;-66
2021/12/23 09:43:04;;;;;;;0.70;0.70;;;19.90;48.90;;;;;;4998514;28;20022;-66
2021/12/23 09:45:31;;;;;;;0.60;0.60;;;20.00;48.90;;;;;;5014756;28;20029;-66
2021/12/23 09:47:57;;;;;;;0.93;0.93;;;19.90;48.80;;;;;;4998076;28;20028;-66
2021/12/23 09:50:24;;;;;;;0.60;0.60;;;19.90;48.80;;;;;;5014838;28;20025;-66
2021/12/23 09:52:52;;;;;;;0.70;0.70;;;19.90;48.80;;;;;;5014851;28;20076;-66
2021/12/23 09:55:20;;;;;;;0.70;0.70;;;19.90;48.90;;;;;;5014602;28;20026;-66
2021/12/23 09:57:49;;;;;;;0.60;0.60;;;20.00;48.90;;;;;;5013451;28;20029;-66
2021/12/23 10:00:17;;;;;;;0.57;0.57;;;20.00;48.90;;;;;;4978731;28;20027;-66
2021/12/23 10:02:42;;;;;;;0.70;0.70;;;20.00;50.00;;;;;;4994641;28;20489;-66
2021/12/23 10:05:16;;;;;;;0.60;0.60;;;20.00;48.90;;;;;;4994853;28;20034;-66
2021/12/23 10:07:44;;;;;;;0.50;0.50;;;19.90;48.80;;;;;;4995851;28;20117;-66
2021/12/23 10:10:15;;;;;;;0.73;0.60;;;19.90;48.90;;;;;;4994869;28;20025;-66
2021/12/23 10:31:58;;;;;;;0.73;0.50;;;19.90;49.00;;;;;;4995344;28;20026;-66
2021/12/23 10:37:23;;;;;;;0.50;0.50;;;20.00;49.10;;;;;;4994240;28;20105;-66
2021/12/23 10:39:51;;;;;;;0.57;0.57;;;20.00;49.10;;;;;;4995229;28;20023;-66
2021/12/23 10:42:22;;;;;;;0.65;0.65;;;20.00;49.10;;;;;;4978082;28;20362;-66
2021/12/23 10:44:57;;;;;;;0.60;0.60;;;19.90;49.00;;;;;;5004253;28;20384;-66
2021/12/23 10:47:45;;;;;;;0.60;0.60;;;20.00;49.10;;;;;;4997506;28;20036;-66
2021/12/23 10:50:28;;;;;;;0.60;0.60;;;20.00;49.00;;;;;;5014938;28;20488;-66
2021/12/23 10:53:02;;;;;;;0.60;0.60;;;20.00;49.10;;;;;;5014878;28;20029;-66
2021/12/23 10:58:15;;;;;;;0.52;0.52;;;20.00;49.10;;;;;;5013506;28;20105;-66
2021/12/23 11:00:49;;;;;;;0.52;0.52;;;20.00;49.10;;;;;;5014282;28;20030;-66
2021/12/23 11:03:21;;;;;;;0.60;0.60;;;19.90;49.00;;;;;;5013307;28;20507;-66
2021/12/23 11:05:59;;;;;;;0.40;0.40;;;20.00;49.10;;;;;;5014408;28;20121;-66
2021/12/23 11:11:27;;;;;;;0.60;0.60;;;19.90;49.10;;;;;;5013670;28;20030;-66
2021/12/23 11:41:39;;;;;;;0.60;0.60;;;20.00;49.30;;;;;;4918524;29;20135;-66
2021/12/23 11:44:06;;;;;;;0.50;0.50;;;20.00;49.30;;;;;;4918407;29;20035;-66
2021/12/23 11:46:45;;;;;;;0.40;0.40;;;19.90;49.20;;;;;;4934197;29;20033;-66
2021/12/23 11:49:13;;;;;;;0.85;0.50;;;20.00;49.20;;;;;;4933472;29;20019;-66
2021/12/23 11:54:09;;;;;;;0.50;0.50;;;20.00;49.30;;;;;;4934200;29;20043;-66
2021/12/23 11:56:36;;;;;;;0.47;0.47;;;20.00;49.20;;;;;;4933877;29;20079;-66
2021/12/23 11:59:02;;;;;;;0.60;0.47;;;20.00;49.20;;;;;;4933384;29;20034;-66
2021/12/23 12:01:30;;;;;;;0.40;0.40;;;20.00;49.20;;;;;;4918145;29;20027;-66
2021/12/23 12:04:06;;;;;;;0.40;0.40;;;20.00;49.20;;;;;;4918042;29;20043;-66
2021/12/23 12:06:45;;;;;;;0.47;0.47;;;20.00;49.20;;;;;;4918179;29;20152;-66
2021/12/23 12:09:17;;;;;;;0.70;0.60;;;20.00;49.20;;;;;;4929077;28;20050;-66
2021/12/23 12:12:01;;;;;;;0.45;0.45;;;20.00;49.20;;;;;;4994190;28;20034;-66
2021/12/23 12:14:39;;;;;;;0.50;0.50;;;20.00;49.20;;;;;;4993279;28;20033;-66
2021/12/23 12:17:23;;;;;;;0.50;0.50;;;20.00;49.20;;;;;;4993641;28;20034;-66
2021/12/23 12:20:15;;;;;;;0.50;0.50;;;20.00;49.20;;;;;;4993891;28;20030;-66
2021/12/23 12:22:58;;;;;;;0.40;0.40;;;20.00;49.30;;;;;;4993622;28;20030;-66
2021/12/23 12:25:23;;;;;;;0.40;0.40;;;20.00;49.30;;;;;;4993448;28;20029;-66
2021/12/23 12:28:09;;;;;;;0.90;0.50;;;19.90;49.30;;;;;;4993156;28;20030;-66
2021/12/23 12:30:35;;;;;;;0.50;0.50;;;20.00;49.20;;;;;;4982964;28;20047;-66
2021/12/23 12:33:05;;;;;;;0.57;0.57;;;20.00;49.30;;;;;;4993266;28;20030;-66
2021/12/23 12:35:30;;;;;;;0.40;0.40;;;20.00;49.30;;;;;;4993406;28;20563;-66
2021/12/23 12:38:10;;;;;;;0.50;0.43;;;20.00;49.30;;;;;;4992261;28;20030;-66
2021/12/23 12:40:57;;;;;;;0.60;0.60;;;20.00;49.30;;;;;;4992251;28;20026;-66
2021/12/23 12:46:12;;;;;;;0.50;0.50;;;20.00;49.30;;;;;;4993448;28;20429;-66
2021/12/23 12:48:57;;;;;;;0.50;0.50;;;20.00;49.30;;;;;;4991971;28;20481;-66
2021/12/23 12:51:26;;;;;;;0.45;0.45;;;20.00;49.30;;;;;;4993163;28;20011;-66
2021/12/23 12:54:14;;;;;;;0.60;0.60;;;20.00;49.40;;;;;;4991976;28;20041;-66
2021/12/23 12:57:04;;;;;;;0.47;0.40;;;20.10;49.30;;;;;;4992823;28;20034;-66
2021/12/23 12:59:31;;;;;;;0.43;0.43;;;20.00;49.30;;;;;;5000840;28;20034;-66
2021/12/23 13:01:58;;;;;;;0.50;0.50;;;20.00;49.40;;;;;;5008042;28;20042;-66
2021/12/23 13:04:33;;;;;;;0.40;0.40;;;20.00;49.30;;;;;;4992933;28;20504;-67
2021/12/23 13:07:12;;;;;;;0.40;0.35;;;20.00;49.30;;;;;;4993072;28;20026;-66
2021/12/23 13:10:01;;;;;;;0.50;0.50;;;20.00;49.30;;;;;;5008233;28;20043;-66
2021/12/23 13:12:34;;;;;;;0.52;0.52;;;20.10;49.40;;;;;;5007090;28;20018;-66
2021/12/23 13:15:16;;;;;;;;;;;20.10;49.40;;;;;;5008283;28;20034;-66
2021/12/23 13:18:19;;;;;;;0.40;0.40;;;20.00;49.40;;;;;;4992831;28;19906;-66
2021/12/23 13:20:52;;;;;;;0.40;0.40;;;20.00;49.50;;;;;;5008042;28;20077;-66
2021/12/23 13:23:22;;;;;;;0.50;0.50;;;20.00;49.60;;;;;;4992770;28;20054;-66
2021/12/23 13:25:56;;;;;;;0.50;0.50;;;20.00;49.60;;;;;;4992345;28;20374;-66
2021/12/23 13:28:44;;;;;;;0.52;0.40;;;20.00;49.50;;;;;;5008095;28;20030;-66
2021/12/23 13:31:22;;;;;;;0.50;0.50;;;20.10;49.40;;;;;;4991689;28;20023;-66
2021/12/23 13:33:53;;;;;;;0.50;0.50;;;20.10;49.50;;;;;;5007521;28;20033;-66
2021/12/23 13:36:24;;;;;;;0.47;0.47;;;20.10;49.50;;;;;;4991382;28;20030;-66
2021/12/23 13:38:57;;;;;;;0.40;0.35;;;20.10;50.50;;;;;;5007481;28;20392;-66
2021/12/23 13:41:28;;;;;;;0.32;0.32;;;20.10;49.50;;;;;;4992337;28;20077;-66
2021/12/23 13:44:16;;;;;;;0.40;0.40;;;20.10;49.50;;;;;;4992390;28;20519;-66
2021/12/23 13:47:05;;;;;;;0.50;0.50;;;20.10;49.50;;;;;;4991592;28;20030;-66
2021/12/23 13:49:46;;;;;;;0.30;0.30;;;20.10;49.40;;;;;;4987342;28;20097;-66
2021/12/23 13:52:35;;;;;;;0.40;0.40;;;20.10;49.50;;;;;;4991617;28;20389;-66
2021/12/23 13:55:12;;;;;;;0.28;0.28;;;20.10;49.50;;;;;;4992252;28;20485;-66
2021/12/23 13:57:42;;;;;;;0.68;0.50;;;20.10;49.50;;;;;;4992376;28;20385;-66
2021/12/23 14:00:20;;;;;;;0.35;0.35;;;20.10;49.50;;;;;;4995396;28;20025;-66
2021/12/23 14:02:47;;;;;;;0.68;0.43;;;20.10;49.50;;;;;;5010988;28;20029;-66
2021/12/23 14:05:13;;;;;;;0.40;0.40;;;20.10;49.50;;;;;;5012088;28;20022;-66
2021/12/23 14:07:47;;;;;;;0.60;0.60;;;20.10;49.50;;;;;;5010685;28;20042;-66